Item Display Status Humidity-temperature Sensor

Elevation Above Sea Level: 3 m

 

Deployed Sensor

  • Serial Number: 20256959
  • NDBC Property Number: 42277
  • Start Date: 12/6/2018 (14:09:16 Z)
  • End Date: Currently Active
Relative Humidity [%]     6 entries per hour
Showing data from 11/15/2019 (02:00:00 Z) to 11/14/2019 (00:00:01 Z)
Previous Next [ Day | 3-Days | 7-Days ]
First Last
Prev [ Day | 3-Days | 7-Days ] Next
First Last

Start Time:     :
End Time:     :     
Time (in GMT) :00 :50 :40 :30 :20 :10
Previous Next [ Day | 3-Days | 7-Days ]
First Last
Prev [ Day | 3-Days | 7-Days ] Next
First Last


123 => good data
MM => data is determined as missing
-- => data not received/configured
Back to Top Back to Top
11/15/2019 02:00 to 1:10 79.25 80.78 81.37 81.18 81.43 80.06
11/15/2019 01:00 to 0:10 80.42 80.92 82.13 83.50 83.72 76.90
11/15/2019 00:00 to 23:10 76.39 77.48 76.07 76.66 76.88 73.90
11/14/2019 23:00 to 22:10 73.48 74.42 74.12 75.79 77.22 77.00
11/14/2019 22:00 to 21:10 76.92 76.31 77.56 77.86 79.33 78.89
11/14/2019 21:00 to 20:10 79.47 80.54 80.44 80.90 81.39 80.28
11/14/2019 20:00 to 19:10 80.32 80.86 80.46 76.68 76.15 78.97
11/14/2019 19:00 to 18:10 76.98 75.49 78.95 79.65 80.98 81.04
11/14/2019 18:00 to 17:10 82.17 82.31 81.20 84.28 84.14 84.71
11/14/2019 17:00 to 16:10 74.74 74.02 75.63 75.19 72.97 75.13
11/14/2019 16:00 to 15:10 77.36 79.23 79.35 70.74 70.10 69.83
11/14/2019 15:00 to 14:10 72.63 74.16 71.63 74.10 70.90 77.00
11/14/2019 14:00 to 13:10 77.76 64.76 70.58 74.02 76.98 74.83
11/14/2019 13:00 to 12:10 72.71 72.51 72.87 75.39 75.25 74.60
11/14/2019 12:00 to 11:10 75.27 73.86 74.24 76.94 77.78 76.80
11/14/2019 11:00 to 10:10 77.62 76.29 77.24 76.84 77.84 76.01
11/14/2019 10:00 to 9:10 75.95 72.79 73.30 73.05 75.45 74.80
11/14/2019 09:00 to 8:10 75.71 77.16 77.76 78.95 78.83 79.03
11/14/2019 08:00 to 7:10 79.25 80.36 81.43 80.70 80.50 79.71
11/14/2019 07:00 to 6:10 80.38 80.36 78.83 79.13 80.20 80.42
11/14/2019 06:00 to 5:10 80.18 80.66 79.61 78.79 78.75 80.50
11/14/2019 05:00 to 4:10 79.37 78.81 79.55 79.37 80.06 80.68
11/14/2019 04:00 to 3:10 80.86 79.71 81.22 80.64 80.14 81.08
11/14/2019 03:00 to 2:10 81.41 81.12 80.58 80.22 80.70 80.38
11/14/2019 02:00 to 1:10 80.52 79.67 81.06 80.28 79.33 79.09
11/14/2019 01:00 to 0:10 79.98 79.37 79.86 79.98 79.98 77.92

 

 

 

Air Temperature [°C]     6 entries per hour
Showing data from 11/15/2019 (02:00:00 Z) to 11/14/2019 (00:00:01 Z)
Previous Next [ Day | 3-Days | 7-Days ]
First Last
Prev [ Day | 3-Days | 7-Days ] Next
First Last

Start Time:     :
End Time:     :     
Time (in GMT) :00 :50 :40 :30 :20 :10
Previous Next [ Day | 3-Days | 7-Days ]
First Last
Prev [ Day | 3-Days | 7-Days ] Next
First Last


123 => good data
MM => data is determined as missing
-- => data not received/configured
Back to Top Back to Top
11/15/2019 02:00 to 1:10 25.40 25.35 25.39 25.47 25.40 25.39
11/15/2019 01:00 to 0:10 25.42 25.31 25.40 25.43 25.39 25.75
11/15/2019 00:00 to 23:10 25.64 25.64 25.68 25.81 25.67 25.91
11/14/2019 23:00 to 22:10 25.84 25.70 25.63 25.66 25.67 25.63
11/14/2019 22:00 to 21:10 25.69 25.67 25.65 25.58 25.71 25.54
11/14/2019 21:00 to 20:10 25.53 25.41 25.38 25.41 25.48 25.43
11/14/2019 20:00 to 19:10 25.36 25.44 25.50 25.58 25.45 25.42
11/14/2019 19:00 to 18:10 25.59 25.54 25.43 25.37 25.48 25.29
11/14/2019 18:00 to 17:10 25.34 25.38 25.20 25.35 25.29 25.30
11/14/2019 17:00 to 16:10 25.74 25.75 25.80 25.90 25.68 25.66
11/14/2019 16:00 to 15:10 25.62 25.61 25.74 26.01 25.93 25.87
11/14/2019 15:00 to 14:10 25.76 25.85 25.90 25.77 25.93 25.66
11/14/2019 14:00 to 13:10 25.75 26.04 26.00 25.88 25.64 25.66
11/14/2019 13:00 to 12:10 26.10 25.88 25.73 25.70 25.58 25.58
11/14/2019 12:00 to 11:10 25.53 25.61 25.51 25.46 25.64 25.58
11/14/2019 11:00 to 10:10 25.57 25.42 25.40 25.48 25.53 25.59
11/14/2019 10:00 to 9:10 25.59 25.65 25.63 25.54 25.55 25.65
11/14/2019 09:00 to 8:10 25.73 25.60 25.52 25.64 25.56 25.55
11/14/2019 08:00 to 7:10 25.47 25.49 25.54 25.58 25.53 25.49
11/14/2019 07:00 to 6:10 25.60 25.57 25.48 25.58 25.44 25.44
11/14/2019 06:00 to 5:10 25.56 25.46 25.53 25.55 25.50 25.56
11/14/2019 05:00 to 4:10 25.53 25.44 25.53 25.47 25.47 25.45
11/14/2019 04:00 to 3:10 25.50 25.52 25.49 25.55 25.63 25.60
11/14/2019 03:00 to 2:10 25.51 25.57 25.49 25.45 25.48 25.43
11/14/2019 02:00 to 1:10 25.43 25.43 25.44 25.55 25.43 25.41
11/14/2019 01:00 to 0:10 25.46 25.43 25.56 25.53 25.52 25.71